createdAt,value
2023-04-16T00:01:07.889Z,13.93
2023-04-16T00:03:35.838Z,16.05
2023-04-16T00:06:03.632Z,17.98
2023-04-16T00:08:31.227Z,16.02
2023-04-16T00:10:58.877Z,17.20
2023-04-16T00:13:27.561Z,15.77
2023-04-16T00:15:56.642Z,16.73
2023-04-16T00:18:24.246Z,16.95
2023-04-16T00:20:53.504Z,21.02
2023-04-16T00:23:21.210Z,18.05
2023-04-16T00:25:48.868Z,15.27
2023-04-16T00:28:16.486Z,16.75
2023-04-16T00:30:44.122Z,16.95
2023-04-16T00:33:13.116Z,14.68
2023-04-16T00:35:40.878Z,17.10
2023-04-16T00:38:08.474Z,15.80
2023-04-16T00:40:36.079Z,16.38
2023-04-16T00:43:03.623Z,15.07
2023-04-16T00:45:31.298Z,15.60
2023-04-16T00:48:00.497Z,15.93
2023-04-16T00:50:29.967Z,15.27
2023-04-16T00:52:58.070Z,17.27
2023-04-16T00:55:25.875Z,16.05
2023-04-16T00:57:53.471Z,16.98
2023-04-16T01:00:21.690Z,17.02
2023-04-16T01:02:49.500Z,17.37
2023-04-16T01:05:17.533Z,15.07
2023-04-16T01:07:46.490Z,18.08
2023-04-16T01:10:14.104Z,14.82
2023-04-16T01:12:41.667Z,17.77
2023-04-16T01:15:09.749Z,17.67
2023-04-16T01:17:37.357Z,16.67
2023-04-16T01:20:05.193Z,17.48
2023-04-16T01:22:34.119Z,14.60
2023-04-16T01:25:01.697Z,15.15
2023-04-16T01:27:29.314Z,15.77
2023-04-16T01:29:57.015Z,17.65
2023-04-16T01:32:24.610Z,17.08
2023-04-16T01:34:52.196Z,17.45
2023-04-16T01:37:19.838Z,14.65
2023-04-16T01:39:48.867Z,16.73
2023-04-16T01:42:16.432Z,14.75
2023-04-16T01:44:44.004Z,15.68
2023-04-16T01:47:11.623Z,15.25
2023-04-16T01:49:39.335Z,17.13
2023-04-16T01:52:08.448Z,17.47
2023-04-16T01:54:36.038Z,16.52
2023-04-16T01:57:05.032Z,19.00
2023-04-16T01:59:32.617Z,13.68
2023-04-16T02:02:01.845Z,15.07
2023-04-16T02:04:29.499Z,16.73
2023-04-16T02:06:57.057Z,17.48
2023-04-16T02:09:24.673Z,15.90
2023-04-16T02:11:52.227Z,14.35
2023-04-16T02:14:21.986Z,16.63
2023-04-16T02:16:49.637Z,15.53
2023-04-16T02:19:17.316Z,15.60
2023-04-16T02:21:44.882Z,15.63
2023-04-16T02:24:12.500Z,16.15
2023-04-16T02:26:40.136Z,17.35
2023-04-16T02:29:08.284Z,16.07
2023-04-16T02:31:37.523Z,16.05
2023-04-16T02:34:05.609Z,15.07
2023-04-16T02:36:33.395Z,16.25
2023-04-16T02:39:01.028Z,15.70
2023-04-16T02:41:28.644Z,14.93
2023-04-16T02:43:56.398Z,16.40
2023-04-16T02:46:24.123Z,16.15
2023-04-16T02:48:53.287Z,16.38
2023-04-16T02:51:21.357Z,16.88
2023-04-16T02:53:48.983Z,16.07
2023-04-16T02:56:16.560Z,16.30
2023-04-16T02:58:44.136Z,16.60
2023-04-16T03:01:11.765Z,17.20
2023-04-16T03:03:39.391Z,17.63
2023-04-16T03:06:08.414Z,18.17
2023-04-16T03:08:36.046Z,16.77
2023-04-16T03:11:03.632Z,14.75
2023-04-16T03:13:31.182Z,17.65
2023-04-16T03:15:58.886Z,17.30
2023-04-16T03:18:26.513Z,18.17
2023-04-16T03:20:54.147Z,17.38
2023-04-16T03:23:23.114Z,15.85
2023-04-16T03:25:50.765Z,16.67
2023-04-16T03:28:18.367Z,19.25
2023-04-16T03:30:51.116Z,15.37
2023-04-16T03:33:18.727Z,17.00
2023-04-16T03:35:46.344Z,16.50
2023-04-16T03:38:13.974Z,17.55
2023-04-16T03:40:42.945Z,18.25
2023-04-16T03:43:10.550Z,17.30
2023-04-16T03:45:38.142Z,16.95
2023-04-16T03:48:06.173Z,16.80
2023-04-16T03:50:33.756Z,18.23
2023-04-16T03:53:01.376Z,16.90
2023-04-16T03:55:29.617Z,16.93
2023-04-16T03:57:58.620Z,19.10
2023-04-16T04:00:26.257Z,17.80
2023-04-16T04:02:53.978Z,15.63
2023-04-16T04:05:21.777Z,15.30
2023-04-16T04:07:49.406Z,17.27
2023-04-16T04:10:17.074Z,18.85
2023-04-16T04:12:44.624Z,16.58
2023-04-16T04:15:13.742Z,16.95
2023-04-16T04:17:41.357Z,17.58
2023-04-16T04:20:09.304Z,17.83
2023-04-16T04:22:36.907Z,17.25
2023-04-16T04:25:04.548Z,16.98
2023-04-16T04:27:32.130Z,17.92
2023-04-16T04:29:59.696Z,19.17
2023-04-16T04:32:28.675Z,17.30
2023-04-16T04:34:56.292Z,17.15
2023-04-16T04:37:23.918Z,18.60
2023-04-16T04:39:51.540Z,16.80
2023-04-16T04:42:19.413Z,16.38
2023-04-16T04:44:47.329Z,18.17
2023-04-16T04:47:15.148Z,17.98
2023-04-16T04:49:44.136Z,16.30
2023-04-16T04:52:11.879Z,17.08
2023-04-16T04:54:41.555Z,18.23
2023-04-16T04:57:09.180Z,16.97
2023-04-16T04:59:36.804Z,16.60
2023-04-16T05:02:04.394Z,17.38
2023-04-16T05:04:32.304Z,20.00
2023-04-16T05:07:01.756Z,17.75
2023-04-16T05:09:29.333Z,18.17
2023-04-16T05:11:57.521Z,17.10
2023-04-16T05:14:25.218Z,17.00
2023-04-16T05:16:52.873Z,16.92
2023-04-16T05:19:20.512Z,20.13
2023-04-16T05:21:48.105Z,17.80
2023-04-16T05:24:17.105Z,17.60
2023-04-16T05:26:44.665Z,17.77
2023-04-16T05:29:12.384Z,18.55
2023-04-16T05:31:40.016Z,18.92
2023-04-16T05:34:07.696Z,15.43
2023-04-16T05:36:35.247Z,19.40
2023-04-16T05:39:02.881Z,19.83
2023-04-16T05:41:31.882Z,19.45
2023-04-16T05:43:59.442Z,20.92
2023-04-16T05:46:27.098Z,18.40
2023-04-16T05:48:54.738Z,18.00
2023-04-16T05:51:24.725Z,19.05
2023-04-16T05:53:52.343Z,19.02
2023-04-16T05:56:20.924Z,20.00
2023-04-16T05:58:49.850Z,21.40
2023-04-16T06:01:17.517Z,19.73
2023-04-16T06:03:45.471Z,22.30
2023-04-16T06:06:13.248Z,20.35
2023-04-16T06:08:40.858Z,21.45
2023-04-16T06:11:08.457Z,19.60
2023-04-16T06:13:36.129Z,23.85
2023-04-16T06:16:05.495Z,22.42
2023-04-16T06:18:33.115Z,21.30
2023-04-16T06:21:00.933Z,21.15
2023-04-16T06:23:28.538Z,22.47
2023-04-16T06:25:56.415Z,22.95
2023-04-16T06:28:24.208Z,20.85
2023-04-16T06:30:51.772Z,20.42
2023-04-16T06:33:20.731Z,22.73
2023-04-16T06:35:48.319Z,22.60
2023-04-16T06:38:15.990Z,19.75
2023-04-16T06:40:43.551Z,21.27
2023-04-16T06:43:11.141Z,19.33
2023-04-16T06:45:38.886Z,22.92
2023-04-16T06:48:06.726Z,22.33
2023-04-16T06:50:35.826Z,23.05
2023-04-16T06:53:03.685Z,23.15
2023-04-16T06:55:31.281Z,21.50
2023-04-16T06:57:58.817Z,20.80
2023-04-16T07:00:26.502Z,21.43
2023-04-16T07:02:56.297Z,23.13
2023-04-16T07:05:25.407Z,22.90
2023-04-16T07:07:56.218Z,22.20
2023-04-16T07:10:23.890Z,21.92
2023-04-16T07:12:51.424Z,22.70
2023-04-16T07:15:19.081Z,21.48
2023-04-16T07:17:46.734Z,21.00
2023-04-16T07:20:14.370Z,20.33
2023-04-16T07:22:42.158Z,22.45
2023-04-16T07:25:11.661Z,20.50
2023-04-16T07:27:39.249Z,22.67
2023-04-16T07:30:08.082Z,20.00
2023-04-16T07:32:35.955Z,20.92
2023-04-16T07:35:03.864Z,21.48
2023-04-16T07:37:31.475Z,22.33
2023-04-16T07:40:00.624Z,21.13
2023-04-16T07:42:29.648Z,20.83
2023-04-16T07:44:57.272Z,22.45
2023-04-16T07:47:26.546Z,21.10
2023-04-16T07:49:54.182Z,20.10
2023-04-16T07:52:21.839Z,19.20
2023-04-16T07:54:52.268Z,18.88
2023-04-16T07:57:19.849Z,20.45
2023-04-16T07:59:49.000Z,19.10
2023-04-16T08:02:17.311Z,22.57
2023-04-16T08:04:45.693Z,23.38
2023-04-16T08:07:13.606Z,20.60
2023-04-16T08:09:48.786Z,22.35
2023-04-16T08:12:17.167Z,20.63
2023-04-16T08:14:45.109Z,19.80
2023-04-16T08:17:14.047Z,21.55
2023-04-16T08:19:41.653Z,20.30
2023-04-16T08:22:09.400Z,18.67
2023-04-16T08:24:36.992Z,20.70
2023-04-16T08:27:15.541Z,18.50
2023-04-16T08:29:45.853Z,20.05
2023-04-16T08:32:14.804Z,17.33
2023-04-16T08:34:43.055Z,19.48
2023-04-16T08:37:10.714Z,18.67
2023-04-16T08:39:38.702Z,19.20
2023-04-16T08:42:06.785Z,20.77
2023-04-16T08:44:35.468Z,18.50
2023-04-16T08:47:03.180Z,17.85
2023-04-16T08:49:37.111Z,19.83
2023-04-16T08:52:07.171Z,17.57
2023-04-16T08:54:40.000Z,18.00
2023-04-16T08:57:08.147Z,19.77
2023-04-16T08:59:35.895Z,18.52
2023-04-16T09:02:03.807Z,16.02
2023-04-16T09:04:33.133Z,22.27
2023-04-16T09:07:01.397Z,19.17
2023-04-16T09:09:29.400Z,17.83
2023-04-16T09:11:57.183Z,19.98
2023-04-16T09:14:25.003Z,19.98
2023-04-16T09:16:53.280Z,18.53
2023-04-16T09:19:20.987Z,21.85
2023-04-16T09:21:50.003Z,21.33
2023-04-16T09:24:17.895Z,18.20
2023-04-16T09:26:46.094Z,16.10
2023-04-16T09:29:33.725Z,18.57
2023-04-16T09:32:02.773Z,20.05
2023-04-16T09:34:30.477Z,16.98
2023-04-16T09:37:14.914Z,18.15
2023-04-16T09:39:43.059Z,17.65
2023-04-16T09:42:10.737Z,18.40
2023-04-16T09:44:38.805Z,20.40
2023-04-16T09:47:07.204Z,15.82
2023-04-16T09:49:35.529Z,18.42
2023-04-16T09:52:10.234Z,18.60
2023-04-16T09:54:37.816Z,16.13
2023-04-16T09:57:06.764Z,17.67
2023-04-16T09:59:36.610Z,17.92
2023-04-16T10:02:14.876Z,17.83
2023-04-16T10:04:47.929Z,18.90
2023-04-16T10:07:17.029Z,17.83
2023-04-16T10:09:44.932Z,17.33
2023-04-16T10:12:13.662Z,17.52
2023-04-16T10:14:41.933Z,17.42
2023-04-16T10:17:10.050Z,16.48
2023-04-16T10:19:37.772Z,17.77
2023-04-16T10:22:05.383Z,16.35
2023-04-16T10:24:34.977Z,16.60
2023-04-16T10:27:02.639Z,19.33
2023-04-16T10:29:31.001Z,15.23
2023-04-16T10:31:59.508Z,18.37
2023-04-16T10:34:27.589Z,16.05
2023-04-16T10:36:56.022Z,15.52
2023-04-16T10:39:24.617Z,15.45
2023-04-16T10:42:07.823Z,18.42
2023-04-16T10:44:36.157Z,15.37
2023-04-16T10:47:03.746Z,15.73
2023-04-16T10:49:31.498Z,17.25
2023-04-16T10:52:00.023Z,15.20
2023-04-16T10:54:28.045Z,17.08
2023-04-16T10:56:57.860Z,17.67
2023-04-16T10:59:25.816Z,15.77
2023-04-16T11:01:54.050Z,17.20
2023-04-16T11:04:28.760Z,16.80
2023-04-16T11:07:17.078Z,18.75
2023-04-16T11:09:55.095Z,14.23
2023-04-16T11:12:24.879Z,15.73
2023-04-16T11:14:53.643Z,15.02
2023-04-16T11:17:21.534Z,18.02
2023-04-16T11:19:49.165Z,15.05
2023-04-16T11:22:18.151Z,17.27
2023-04-16T11:24:46.130Z,14.60
2023-04-16T11:27:14.242Z,14.25
2023-04-16T11:29:45.069Z,14.32
2023-04-16T11:32:21.279Z,15.05
2023-04-16T11:34:48.874Z,15.37
2023-04-16T11:37:16.555Z,14.77
2023-04-16T11:39:50.926Z,14.25
2023-04-16T11:42:22.696Z,15.65
2023-04-16T11:44:55.615Z,14.55
2023-04-16T11:47:23.798Z,15.73
2023-04-16T11:49:51.641Z,14.75
2023-04-16T11:52:28.807Z,14.98
2023-04-16T11:54:56.647Z,15.18
2023-04-16T11:57:27.706Z,15.93
2023-04-16T12:00:01.337Z,15.80
2023-04-16T12:02:37.522Z,14.00
2023-04-16T12:05:05.710Z,16.85
2023-04-16T12:07:33.380Z,18.15
2023-04-16T12:10:07.921Z,15.82
2023-04-16T12:12:35.810Z,15.47
2023-04-16T12:15:05.134Z,16.83
2023-04-16T12:17:33.073Z,15.82
2023-04-16T12:20:01.374Z,16.13
2023-04-16T12:22:29.833Z,14.52
2023-04-16T12:24:59.354Z,13.13
2023-04-16T12:27:28.750Z,14.88
2023-04-16T12:30:09.047Z,13.90
2023-04-16T12:32:36.665Z,14.45
2023-04-16T12:35:04.416Z,14.85
2023-04-16T12:37:32.157Z,13.63
2023-04-16T12:39:59.748Z,15.32
2023-04-16T12:42:27.423Z,15.05
2023-04-16T12:44:55.076Z,15.35
2023-04-16T12:47:24.005Z,15.52
2023-04-16T12:49:51.609Z,16.13
2023-04-16T12:52:19.197Z,14.70
2023-04-16T12:54:46.858Z,14.68
2023-04-16T12:57:14.622Z,14.65
2023-04-16T12:59:42.191Z,14.57
2023-04-16T13:02:09.892Z,15.30
2023-04-16T13:04:39.121Z,17.55
2023-04-16T13:07:06.868Z,13.98
2023-04-16T13:09:34.495Z,14.23
2023-04-16T13:12:02.258Z,15.45
2023-04-16T13:14:29.872Z,14.00
2023-04-16T13:16:57.706Z,16.33
2023-04-16T13:19:25.440Z,14.35
2023-04-16T13:21:54.420Z,16.88
2023-04-16T13:24:23.210Z,14.88
2023-04-16T13:26:52.097Z,13.20
2023-04-16T13:29:20.711Z,16.00
2023-04-16T13:31:48.418Z,14.13
2023-04-16T13:34:16.180Z,15.68
2023-04-16T13:36:43.745Z,14.77
2023-04-16T13:39:12.747Z,16.10
2023-04-16T13:41:40.801Z,13.95
2023-04-16T13:44:08.544Z,13.35
2023-04-16T13:46:36.306Z,14.25
2023-04-16T13:49:03.967Z,13.43
2023-04-16T13:51:32.102Z,15.67
2023-04-16T13:53:59.690Z,13.95
2023-04-16T13:56:28.651Z,15.07
2023-04-16T13:58:56.300Z,15.70
2023-04-16T14:01:23.923Z,15.90
2023-04-16T14:03:51.609Z,18.63
2023-04-16T14:06:19.242Z,13.75
2023-04-16T14:08:46.877Z,15.88
2023-04-16T14:11:14.515Z,16.35
2023-04-16T14:13:43.602Z,17.27
2023-04-16T14:16:11.208Z,16.10
2023-04-16T14:18:42.165Z,15.70
2023-04-16T14:21:09.762Z,15.50
2023-04-16T14:23:37.289Z,16.13
2023-04-16T14:26:05.217Z,14.18
2023-04-16T14:28:32.916Z,15.70
2023-04-16T14:31:01.945Z,16.05
2023-04-16T14:33:29.507Z,16.70
2023-04-16T14:35:57.162Z,14.85
2023-04-16T14:38:24.729Z,17.75
2023-04-16T14:40:52.320Z,17.10
2023-04-16T14:43:19.957Z,17.35
2023-04-16T14:45:47.629Z,14.98
2023-04-16T14:48:16.698Z,16.13
2023-04-16T14:50:44.568Z,17.17
2023-04-16T14:53:12.583Z,14.93
2023-04-16T14:55:40.247Z,13.50
2023-04-16T14:58:07.757Z,15.60
2023-04-16T15:00:35.515Z,15.43
2023-04-16T15:03:03.348Z,17.80
2023-04-16T15:05:32.633Z,14.13
2023-04-16T15:08:00.553Z,15.10
2023-04-16T15:10:28.273Z,19.15
2023-04-16T15:12:55.949Z,15.52
2023-04-16T15:15:23.510Z,16.23
2023-04-16T15:17:51.926Z,15.27
2023-04-16T15:20:19.604Z,16.13
2023-04-16T15:22:48.511Z,14.85
2023-04-16T15:25:16.389Z,15.68
2023-04-16T15:27:44.019Z,14.02
2023-04-16T15:30:12.585Z,17.83
2023-04-16T15:32:40.426Z,15.93
2023-04-16T15:35:11.161Z,17.83
2023-04-16T15:37:39.762Z,16.85
2023-04-16T15:40:09.448Z,15.20
2023-04-16T15:42:37.014Z,15.30
2023-04-16T15:45:04.846Z,16.75
2023-04-16T15:47:32.463Z,15.05
2023-04-16T15:50:00.046Z,16.15
2023-04-16T15:52:27.752Z,16.63
2023-04-16T15:54:55.834Z,16.10
2023-04-16T15:57:24.799Z,14.55
2023-04-16T16:00:06.029Z,16.00
2023-04-16T16:02:35.233Z,17.90
2023-04-16T16:05:03.549Z,18.27
2023-04-16T16:07:31.132Z,15.60
2023-04-16T16:09:58.768Z,15.30
2023-04-16T16:12:27.744Z,17.15
2023-04-16T16:14:57.527Z,16.52
2023-04-16T16:17:25.272Z,18.00
2023-04-16T16:19:53.164Z,16.70
2023-04-16T16:22:23.645Z,15.98
2023-04-16T16:24:52.047Z,18.05
2023-04-16T16:27:20.894Z,17.38
2023-04-16T16:29:49.858Z,16.40
2023-04-16T16:32:17.606Z,15.03
2023-04-16T16:34:45.215Z,15.60
2023-04-16T16:37:12.847Z,15.93
2023-04-16T16:39:40.458Z,17.33
2023-04-16T16:42:09.178Z,14.85
2023-04-16T16:44:36.837Z,15.80
2023-04-16T16:47:06.477Z,14.20
2023-04-16T16:49:34.260Z,16.58
2023-04-16T16:52:01.888Z,16.10
2023-04-16T16:54:29.553Z,18.17
2023-04-16T16:56:57.109Z,15.60
2023-04-16T16:59:24.730Z,18.33
2023-04-16T17:01:52.375Z,17.98
2023-04-16T17:04:21.584Z,14.75
2023-04-16T17:06:49.323Z,16.17
2023-04-16T17:09:17.147Z,16.47
2023-04-16T17:11:44.725Z,16.33
2023-04-16T17:14:12.304Z,15.25
2023-04-16T17:16:40.139Z,15.93
2023-04-16T17:19:07.759Z,15.82
2023-04-16T17:21:36.741Z,19.07
2023-04-16T17:24:04.394Z,16.90
2023-04-16T17:26:32.015Z,15.88
2023-04-16T17:28:59.621Z,17.05
2023-04-16T17:31:27.832Z,17.98
2023-04-16T17:33:55.600Z,15.73
2023-04-16T17:36:23.300Z,17.30
2023-04-16T17:38:52.268Z,17.50
2023-04-16T17:41:20.477Z,15.10
2023-04-16T17:43:48.916Z,16.63
2023-04-16T17:46:16.673Z,13.97
2023-04-16T17:48:45.049Z,15.15
2023-04-16T17:51:12.842Z,14.63
2023-04-16T17:53:42.636Z,16.83
2023-04-16T17:56:11.759Z,16.95
2023-04-16T17:58:39.362Z,17.97
2023-04-16T18:01:07.121Z,15.25
2023-04-16T18:03:35.012Z,15.68
2023-04-16T18:06:02.832Z,15.82
2023-04-16T18:08:30.752Z,15.82
2023-04-16T18:10:58.366Z,14.00
2023-04-16T18:13:27.338Z,15.13
2023-04-16T18:15:55.006Z,14.95
2023-04-16T18:18:22.670Z,18.00
2023-04-16T18:20:50.408Z,17.98
2023-04-16T18:23:17.983Z,15.47
2023-04-16T18:25:45.597Z,16.85
2023-04-16T18:28:14.294Z,14.45
2023-04-16T18:30:43.459Z,13.30
2023-04-16T18:33:42.817Z,15.18
2023-04-16T18:36:01.193Z,14.20
2023-04-16T18:38:29.581Z,15.45
2023-04-16T18:40:57.174Z,15.77
2023-04-16T18:43:25.404Z,14.05
2023-04-16T18:45:54.646Z,16.20
2023-04-16T18:48:22.260Z,14.87
2023-04-16T18:50:49.832Z,14.27
2023-04-16T18:53:17.425Z,15.00
2023-04-16T18:55:44.997Z,12.50
2023-04-16T18:58:12.616Z,14.68
2023-04-16T19:00:40.322Z,13.00
2023-04-16T19:03:09.607Z,15.02
2023-04-16T19:05:37.318Z,14.73
2023-04-16T19:08:05.002Z,15.38
2023-04-16T19:10:32.831Z,13.80
2023-04-16T19:13:00.472Z,13.37
2023-04-16T19:15:30.068Z,15.85
2023-04-16T19:17:59.402Z,14.07
2023-04-16T19:20:28.480Z,15.48
2023-04-16T19:22:56.099Z,14.93
2023-04-16T19:25:23.710Z,15.07
2023-04-16T19:27:51.760Z,14.00
2023-04-16T19:30:20.199Z,14.40
2023-04-16T19:32:47.946Z,12.52
2023-04-16T19:35:15.702Z,16.25
2023-04-16T19:37:44.705Z,16.00
2023-04-16T19:40:12.910Z,15.63
2023-04-16T19:42:40.589Z,14.90
2023-04-16T19:45:08.742Z,14.32
2023-04-16T19:47:36.652Z,16.38
2023-04-16T19:50:07.719Z,13.67
2023-04-16T19:52:38.650Z,14.85
2023-04-16T19:55:08.411Z,14.82
2023-04-16T19:57:36.228Z,15.25
2023-04-16T20:00:05.847Z,12.40
2023-04-16T20:02:33.580Z,12.80
2023-04-16T20:05:01.890Z,17.10
2023-04-16T20:07:29.416Z,15.63
2023-04-16T20:09:57.449Z,15.38
2023-04-16T20:12:26.646Z,15.80
2023-04-16T20:14:54.227Z,14.23
2023-04-16T20:17:22.256Z,16.15
2023-04-16T20:19:51.147Z,14.90
2023-04-16T20:22:19.146Z,15.68
2023-04-16T20:24:48.277Z,15.73
2023-04-16T20:27:16.879Z,17.43
2023-04-16T20:29:45.947Z,14.98
2023-04-16T20:32:13.529Z,15.20
2023-04-16T20:34:41.112Z,15.80
2023-04-16T20:37:08.750Z,15.90
2023-04-16T20:39:37.196Z,14.77
2023-04-16T20:42:10.153Z,16.60
2023-04-16T20:44:41.428Z,15.90
2023-04-16T20:47:11.497Z,14.50
2023-04-16T20:49:40.336Z,16.02
2023-04-16T20:52:08.065Z,17.87
2023-04-16T20:54:35.731Z,16.50
2023-04-16T20:57:04.813Z,17.85
2023-04-16T20:59:32.850Z,15.32
2023-04-16T21:02:00.529Z,16.42
2023-04-16T21:04:29.743Z,20.20
2023-04-16T21:06:57.442Z,17.83
2023-04-16T21:09:24.986Z,16.30
2023-04-16T21:11:52.640Z,16.20
2023-04-16T21:14:20.510Z,17.52
2023-04-16T21:16:48.188Z,17.63
2023-04-16T21:19:15.733Z,16.30
2023-04-16T21:21:44.661Z,16.80
2023-04-16T21:24:12.273Z,17.55
2023-04-16T21:26:39.923Z,15.98
2023-04-16T21:29:07.547Z,16.70
2023-04-16T21:31:35.236Z,15.30
2023-04-16T21:34:02.956Z,17.67
2023-04-16T21:36:32.028Z,16.17
2023-04-16T21:39:01.101Z,16.50
2023-04-16T21:41:28.770Z,16.23
2023-04-16T21:43:56.323Z,16.73
2023-04-16T21:46:25.461Z,15.43
2023-04-16T21:48:53.732Z,19.52
2023-04-16T21:51:28.848Z,16.70
2023-04-16T21:53:56.631Z,14.37
2023-04-16T21:56:26.111Z,14.27
2023-04-16T21:58:53.669Z,14.70
2023-04-16T22:01:21.767Z,13.93
2023-04-16T22:03:51.982Z,15.73
2023-04-16T22:06:20.463Z,16.20
2023-04-16T22:08:49.826Z,15.75
2023-04-16T22:11:17.578Z,14.85
2023-04-16T22:13:47.654Z,18.25
2023-04-16T22:16:15.639Z,15.40
2023-04-16T22:18:43.274Z,17.83
2023-04-16T22:21:10.877Z,15.02
2023-04-16T22:23:38.537Z,16.75
2023-04-16T22:26:06.241Z,17.67
2023-04-16T22:28:33.823Z,17.90
2023-04-16T22:31:03.001Z,16.40
2023-04-16T22:33:30.664Z,17.85
2023-04-16T22:35:58.327Z,15.90
2023-04-16T22:38:25.961Z,15.90
2023-04-16T22:40:53.586Z,15.70
2023-04-16T22:43:21.190Z,15.67
2023-04-16T22:45:48.766Z,17.55
2023-04-16T22:48:18.665Z,16.58
2023-04-16T22:50:48.414Z,14.40
2023-04-16T22:53:16.233Z,18.88
2023-04-16T22:55:43.886Z,18.73
2023-04-16T22:58:11.621Z,15.15
2023-04-16T23:00:39.270Z,16.30
2023-04-16T23:03:07.232Z,18.50
2023-04-16T23:05:36.291Z,18.10
2023-04-16T23:08:03.861Z,17.37
2023-04-16T23:10:31.533Z,16.20
2023-04-16T23:12:59.181Z,19.85
2023-04-16T23:15:26.811Z,16.83
2023-04-16T23:17:54.428Z,15.48
2023-04-16T23:20:22.054Z,16.30
2023-04-16T23:22:51.028Z,17.60
2023-04-16T23:25:19.159Z,18.75
2023-04-16T23:27:46.717Z,16.38
2023-04-16T23:30:14.539Z,18.58
2023-04-16T23:32:42.166Z,16.90
2023-04-16T23:35:10.223Z,19.48
2023-04-16T23:37:37.848Z,17.73
2023-04-16T23:40:08.202Z,17.80
2023-04-16T23:42:35.813Z,14.60
2023-04-16T23:45:03.526Z,16.53
2023-04-16T23:47:31.138Z,19.73
2023-04-16T23:49:58.762Z,17.75
2023-04-16T23:52:26.345Z,18.48
2023-04-16T23:54:53.941Z,19.92
2023-04-16T23:57:22.888Z,19.27
2023-04-16T23:59:50.479Z,18.73
